Weather at Yas Island Seaplane Base

Public forecast

Using degrees Celsius for public forecast. Weather courtesy of forecast.io.

Closest aviation weather report (METAR) to Yas Island Seaplane Base

Closest report is Abu Dhabi International Airport, 2.7 nm (4.9 km) ESE.

2024/04/12 17:00 (retrieved 14 minutes ago)

OMAA 121700Z 33009KT CAVOK 28/17 Q1007 NOSIG

Closest aviation forecast (TAF) to Yas Island Seaplane Base

Closest forecast is Abu Dhabi International Airport, 2.7 nm (4.9 km) ESE.

2024/04/12 12:00 (retrieved 5 hours ago)

TAF OMAA 121100Z 1212/1318 33014KT 8000 NSC PROB30 TEMPO 1212/1215 VRB20G30KT 3000 TSRA BLDU FEW040CB PROB30 TEMPO 1215/1221 VRB15G25KT 4000 SHRA BLDU FEW040TCU BECMG 1218/1220 33004KT BECMG 1306/1308 33014KT PROB30 TEMPO 1308/1318 VRB15G25KT 4000 SHRA BLDU FEW040TCU